Winter Series I

Overall Results

January 12, 2013


Results by Pikes Peak Road Runners. E-mail any corrections/questions to raceresults@pprrun.org

This race is chip timed. Scoring is by chip time. The Series Results
are also based on chip time.

If you have any questions about the results, please send an e-mail to
Dave Sorenson at raceresults@pprrun.org

If you have other questions about the race, please send an e-mail to the
race directors, Mike Shafai (michael.c.shafai@smithbarney.com) and
John Gardner (john.n.gardner@smithbarney.com)

Weather: Mostly sunny with temps in the low teens, wind chill in the
single digits.

Course: Mostly single-track dirt trails, with a good number of hills.

The finish is different than in the past two years. Instead of finishing by
going up a few steps to the parking area, the finish is just north of the
bathroom building, where the trail exits to a patio area. This finish
makes the course about 1/20th of a mile shorter than in the past two years, thus
all course records will be reset with the results from today's races.

The second race of the Winter Series will be held on Saturday, January 26th.
The venue for the second race is at the El Pomar Youth Sports Center.
Take I-25 to exit 138 (Circle). Travel east 4 blocks to Janitell Road South.
There is a McDonald's on the corner. Turn south and go 3 blocks, and turn
east (left) onto Executive Drive. Proceed about 2 blocks (east and south)
to the entrance of the Sports Center. There is plenty of parking.

Thanks!!

 

Short

 
OPlc GPlc AGPlc Bib Name Sx Ag City Gun Chip Pace Senior Athena/Clyde Team
1 1 1 M 20-24 5715 James Burns M 24 Colorado Spgs CO 17:41 17:41 5:37/M  
2 2 1 M 40-44 5681 Justin Chaston M 44 Colorado Springs CO 18:11 18:10 5:46/M HART
3 3 1 M 45-49 4168 Simon Gutierrez M 46 Colorado Springs CO 18:37 18:36 5:54/M Scrambled Legs
4 4 1 M 30-34 4497 Logan Wealing M 31 Colorado Springs CO 18:48 18:48 5:58/M Scrambled Legs
5 5 1 M 25-29 5885 Daniel Castaneda M 28 Colorado Springs CO 19:11 19:11 6:05/M  
6 6 1 M 35-39 4266 Paul Mann M 35 Colorado Springs CO 19:39 19:39 6:14/M  
7 7 2 M 30-34 4264 Peter Maksimow M 34 Manitou Springs CO 20:14 20:13 6:25/M Scrambled Legs
8 8 2 M 20-24 4015 Christopher Athey M 21 Centennial CO 20:17 20:17 6:26/M PEAK Multisport
9 9 1 M 15-19 5880 Phillip Meyer M 18 Colorado Springs CO 20:25 20:25 6:29/M PEAK Multisport
10 10 2 M 35-39 4278 Nathan McCrary M 37 Colorado Springs CO 20:37 20:36 6:32/M Boulder Running Company
11 11 2 M 40-44 5579 Gerald Romero M 41 Colo Springs CO 20:39 20:38 6:33/M Prime time playaz
12 1 1 F 10-14 5749 Katie Rainsberger F 14 Colo Springs CO 21:16 21:16 6:45/M Stud Muffins
13 12 3 M 30-34 4030 Richard Bennett M 33 Colorado Springs CO 21:27 21:25 6:48/M  
14 13 3 M 35-39 4016 Ken Axford M 35 Colorado Springs CO 21:41 21:40 6:53/M PEAK Multisport
15 14 2 M 25-29 4002 Andrew Abdella M 26 Elbert CO 21:43 21:42 6:53/M  
16 15 2 M 15-19 8154 Hugo Lara Jr M 16 Peyton CO 21:46 21:46 6:55/M Sand Creek Boys
17 16 4 M 35-39 5780 Josh Johnson M 36 Colo Springs CO 21:50 21:49 6:56/M HART
18 17 2 M 45-49 4399 Tom Selke M 45 Colorado Springs CO 21:55 21:54 6:57/M  
19 18 1 M 50-54 5827 Rick Shoulberg M 51 Guffey CO 21:57 21:55 6:57/M  
20 19 5 M 35-39 4380 Steven Rocks M 35 Colorado Springs CO 22:10 22:08 7:02/M HART
21 20 4 M 30-34 4321 Erik Nelson M 32 Colorado Springs CO 22:13 22:10 7:02/M  
22 2 2 F 10-14 4448 Kayli Tabares F 13 Colorado Springs CO 22:17 22:14 7:03/M Prime time playaz
23 21 3 M 15-19 4271 Danny Mathews M 17 Colorado Springs CO 22:23 22:20 7:05/M  
24 22 3 M 45-49 4315 Todd Murray M 49 Colorado Springs CO 22:28 22:26 7:07/M CSPD Coed
25 23 4 M 15-19 4289 Adam McKittrick M 16 Colorado Springs CO 22:31 22:31 7:09/M PEAK Multisport
 
 
OPlc GPlc AGPlc Bib Name Sx Ag City Gun Chip Pace Senior Athena/Clyde Team
26 24 3 M 20-24 4437 Tyler Stiles M 24 Colorado Springs CO 22:35 22:33 7:10/M  
27 25 6 M 35-39 5722 Troy McCubbin M 39 Colo Springs CO 22:44 22:42 7:12/M HART
28 26 5 M 30-34 4449 Travis Tabares M 34 Colorado Springs CO 22:46 22:44 7:13/M Prime time playaz
29 3 1 F 15-19 4459 Aubrey Till F 15 Canon City CO 22:50 22:48 7:14/M Stud Muffins
30 27 5 M 15-19 5623 Jorgen Moore M 17 Pueblo West CO 22:56 22:52 7:16/M  
31 28 7 M 35-39 6067 Richard Hedlind M 36 Colorado Springs CO 23:09 23:06 7:20/M  
32 29 3 M 25-29 5833 Mike Stephens M 29 Colo Springs CO 23:13 23:13 7:22/M HART
33 4 2 F 15-19 5906 Claire Rachwitz F 18 Colorado Springs CO 23:18 23:15 7:23/M  
34 5 3 F 10-14 6006 Kayla Wiitala F 14 Colorado Springs CO 23:24 23:23 7:25/M Stud Muffins
35 30 8 M 35-39 4286 Jeffrey McGuirk M 39 Colorado Springs CO 23:30 23:29 7:27/M  
36 31 6 M 15-19 4066 Austin Carpenter M 17 Colorado Springs CO 23:36 23:30 7:28/M  
37 32 9 M 35-39 6072 Jason Morgan M 36 Colo Springs CO 23:40 23:39 7:30/M Boulder Running Company
38 33 7 M 15-19 4024 Rion Bates M 18 Pueblo CO 23:47 23:43 7:32/M Pueblo West Boys
39 34 10 M 35-39 4150 Jeff Gifford M 39 Fountain CO 23:56 23:45 7:32/M  
40 6 3 F 15-19 4491 Brittany Warly F 19 Englewood CO 23:47 23:46 7:33/M  
41 7 4 F 10-14 4460 Katie Till F 14 Canon City CO 23:48 23:48 7:33/M Stud Muffins
42 35 8 M 15-19 4481 Braden Virdell M 16 Colorado Springs CO 23:53 23:53 7:35/M Vista Ridge Coed
43 8 5 F 10-14 4434 Chantae Steele F 11 Colorado Springs CO 23:55 23:53 7:35/M Stud Muffins
44 36 11 M 35-39 4359 Michael Proffitt M 35 Colorado Springs CO 23:57 23:54 7:35/M PEAK Multisport
45 37 3 M 40-44 4043 Greg Braeger M 40 Colorado Springs CO 23:58 23:56 7:36/M  
46 9 1 F 25-29 4226 Anna Kharlamova F 27 Manitou Springs CO 24:05 24:05 7:39/M HART
47 38 2 M 50-54 4166 Michael Guenther M 51 Monument CO 24:12 24:10 7:40/M  
48 39 9 M 15-19 4393 Robert Schuemann M 17 Peyton CO 24:25 24:23 7:44/M Victorious Secret
49 40 12 M 35-39 4153 Joseph Glass M 35 Manitou Springs CO 24:31 24:30 7:47/M  
50 10 4 F 15-19 5726 Megan Percy F 16 Colorado Spgs CO 24:33 24:33 7:48/M Stud Muffins
 
 
OPlc GPlc AGPlc Bib Name Sx Ag City Gun Chip Pace Senior Athena/Clyde Team
51 41 10 M 15-19 4161 Kevin Graves M 16 Colorado Springs CO 24:46 24:43 7:51/M James Irwin Boys
52 42 6 M 30-34 6076 Matt Zehner M 31 Colo Springs CO 24:51 24:45 7:51/M CFF
53 11 1 F 45-49 6051 Lisa McCone F 46 Colorado Springs CO 25:04 25:00 7:56/M  
54 43 4 M 40-44 4309 Dale Moseley M 42 Colorado Springs CO 25:05 25:01 7:57/M  
55 44 7 M 30-34 4283 Kevin McGregor M 32 Colorado Springs CO 25:08 25:03 7:57/M Team Frank
56 45 1 M 10-14 6031 Nico Barone M 13 Colorado Springs CO 25:09 25:04 7:57/M  
57 12 1 F 30-34 4378 Jaclyn Roberson F 32 Colorado Springs CO 25:07 25:05 7:58/M  
58 46 2 M 10-14 4404 Ryne Shewey M 12 Colorado Springs CO 25:11 25:07 7:58/M  
59 13 5 F 15-19 4428 Darby Spence F 17 Pueblo West CO 25:14 25:09 7:59/M Pueblo West Girls
60 47 5 M 40-44 4405 Scott Shewey M 41 Colorado Springs CO 25:13 25:10 7:59/M  
61 14 6 F 10-14 4447 Jalynn Tabares F 11 Colorado Springs CO 25:14 25:11 8:00/M Prime time playaz
62 48 3 M 50-54 6017 Christopher Witt M 50 Colorado Springs CO 25:14 25:12 8:00/M Clydesdale Cafe Velo
63 49 3 M 10-14 5938 Jojo Dicke M 13 Colorado Springs CO 25:21 25:15 8:01/M PEAK Multisport
64 15 6 F 15-19 4314 Lauren Murray F 16 Colorado Springs CO 25:22 25:18 8:02/M Coronado Coed
65 16 2 F 25-29 4435 Lena Steiner F 28 Colorado Springs CO 25:21 25:18 8:02/M  
66 50 4 M 20-24 5781 Kyle Gannon M 21 Colorado Springs CO 25:32 25:22 8:03/M  
67 51 1 M 60-64 4390 Michael Schenk M 60 Colorado Springs CO 25:31 25:28 8:05/M  
68 52 13 M 35-39 4171 Curtis Hamstra M 37 Colorado Springs CO 25:31 25:28 8:05/M Clydesdale HART
69 53 5 M 20-24 4172 Thomas Hanchar M 22 Colorado Springs CO 25:44 25:36 8:08/M  
70 54 8 M 30-34 4034 Kip Biese M 34 Colorado Springs CO 25:40 25:36 8:08/M KJ Bike Coaching
71 17 1 F 35-39 4144 Donna Garcia F 39 Colorado Springs CO 25:40 25:37 8:08/M HART
72 18 2 F 30-34 4354 Brianne Pierson F 34 Colorado Springs CO 25:41 25:37 8:08/M HART
73 19 3 F 25-29 4036 Sarah Blakeslee F 27 Colorado Springs CO 25:45 25:42 8:10/M Scrambled Legs
74 55 11 M 15-19 4281 Austin McElderry M 17 Colorado Springs CO 25:44 25:43 8:10/M Sand Creek Boys
75 56 4 M 10-14 4394 Samuel Schuemann M 12 Peyton CO 25:49 25:47 8:11/M Victorious Secret
 
 
OPlc GPlc AGPlc Bib Name Sx Ag City Gun Chip Pace Senior Athena/Clyde Team
76 57 9 M 30-34 5587 Neil Caruso M 30 Colorado Spgs CO 26:02 25:58 8:15/M EPSO Coed
77 58 4 M 45-49 4425 Craig Sommerdorf M 49 Fountain CO 26:08 26:05 8:17/M EPSO Coed
78 59 4 M 50-54 4441 Fred Stoot M 54 Colorado Springs CO 26:23 26:11 8:19/M  
79 20 3 F 30-34 4217 Lauren Johnson F 32 Colorado Springs CO 26:17 26:14 8:20/M Scrambled Legs
80 60 4 M 25-29 4132 Eugene Fisco M 26 Colorado Springs CO 26:29 26:20 8:22/M  
81 21 7 F 15-19 4268 Susan Marshall F 16 Pueblo West CO 26:28 26:23 8:23/M Pueblo West Girls
82 22 4 F 30-34 5806 Heather Enos F 31 Colorado Springs CO 26:30 26:26 8:23/M Kickin' Trail Runners
83 61 6 M 20-24 4133 Raymond Fisco M 22 Colorado Springs CO 26:41 26:31 8:25/M Shoot Dang in the Boo Rang
84 23 2 F 45-49 4477 Penny Vetter F 49 Woodland Park CO 26:39 26:35 8:26/M  
85 62 6 M 40-44 4078 Gene Chavez M 44 Colorado Springs CO 26:40 26:36 8:27/M  
86 63 2 M 60-64 4298 Larry Miller M 62 Colorado Springs CO 26:48 26:45 8:30/M  
87 24 5 F 30-34 4292 Leah McQuade F 30 Colorado Springs CO 26:53 26:49 8:31/M HART
88 25 8 F 15-19 4219 Bailie Jones F 17 Pueblo West CO 26:55 26:50 8:31/M Pueblo West Girls
89 64 5 M 45-49 4019 Doyle Baker M 49 Colorado Springs CO 26:59 26:54 8:32/M  
90 65 7 M 40-44 6071 James Taylor M 43 Colorado Springs CO 26:58 26:57 8:33/M  
91 26 1 F 40-44 4146 Nadine Garcia F 40 Colorado Springs CO 27:04 27:00 8:34/M HART
92 27 1 F 55-59 4386 Laurie Ryan F 56 Colorado Springs CO 27:09 27:05 8:36/M Kickin' Trail Runners
93 28 9 F 15-19 4387 Megan Ryan F 19 Colorado Springs CO 27:11 27:06 8:36/M  
94 66 6 M 45-49 4340 Carlos Paine M 47 Colorado Springs CO 27:13 27:06 8:36/M  
95 67 7 M 20-24 6016 Erik Winters M 23 Colorado Springs CO 27:15 27:12 8:38/M Clydesdale  
96 68 5 M 50-54 4395 Greg Schultz M 50 Colorado Springs CO 27:18 27:12 8:38/M  
97 29 10 F 15-19 4249 Christen Leedom F 16 Pueblo West CO 27:20 27:15 8:39/M Pueblo West Girls
98 69 10 M 30-34 4162 Joshua Green M 34 Colorado Springs CO 27:26 27:16 8:39/M Clydesdale  
99 30 1 F 20-24 4207 Kelsey Hyde F 24 Colorado Springs CO 27:39 27:23 8:42/M Natural Gas Project
100 31 3 F 45-49 4357 Mary Pompeii F 45 Colorado Springs CO 27:28 27:24 8:42/M Kickin' Trail Runners
 
 
OPlc GPlc AGPlc Bib Name Sx Ag City Gun Chip Pace Senior Athena/Clyde Team
101 32 6 F 30-34 4329 Marisa Novobilski F 34 Colorado Springs CO 27:31 27:26 8:43/M  
102 33 4 F 25-29 4307 Meghan Moore F 28 Fountain CO 27:30 27:28 8:43/M  
103 70 3 M 60-64 4182 Craig Hayes M 61 Colorado Springs CO 27:41 27:36 8:46/M  
104 71 1 M 55-59 4082 Dennis Collard M 58 Colorado Springs CO 27:46 27:37 8:46/M  
105 72 14 M 35-39 6069 Matt Laubhan M 36 Colo Springs CO 27:49 27:41 8:47/M  
106 73 8 M 40-44 4054 Rich Buckley M 41 Colorado Springs CO 27:55 27:43 8:48/M  
107 74 11 M 30-34 6034 Joey Buttenwieser M 32 Colorado Springs CO 28:07 27:50 8:50/M  
108 75 9 M 40-44 4494 Mel Watson M 43 Fountain CO 28:06 28:00 8:53/M  
109 76 2 M 55-59 4496 David Watts M 56 Monument CO 28:13 28:08 8:56/M  
110 77 8 M 20-24 4440 Daniel Stoot M 23 Colorado Springs CO 28:20 28:09 8:56/M  
111 34 7 F 30-34 4328 Jessica Norsky F 31 Aurora CO 28:15 28:12 8:57/M HART
112 35 2 F 35-39 4349 Amy Perez F 37 Colorado Springs CO 28:16 28:14 8:58/M Scrambled Legs
113 36 5 F 25-29 4181 Bethany Hathaway F 29 Colorado Springs CO 28:25 28:16 8:58/M Athena  
114 78 12 M 15-19 4439 Dylan Stimson M 16 Colorado Springs CO 28:31 28:25 9:01/M Coronado Coed
115 37 8 F 30-34 4284 Megan McGregor F 33 Colorado Springs CO 28:25 28:25 9:01/M  
116 79 9 M 20-24 4242 Ojie Laguatan M 21 Colorado Springs CO 28:35 28:26 9:02/M  
117 80 5 M 25-29 4214 Paul Jaszkowiak M 29 Colorado Springs CO 28:29 28:29 9:03/M  
118 38 4 F 45-49 4188 Lynn Henderson F 48 Colorado Springs CO 28:34 28:30 9:03/M Kickin' Trail Runners
119 39 7 F 10-14 4379 Gabby Robson F 13 Colorado Springs CO 28:41 28:34 9:04/M  
120 81 10 M 40-44 4037 Mark Block M 43 Peyton CO 28:39 28:35 9:04/M AAA Volunteers
121 40 1 F 50-54 4414 Jayne Sims F 51 Colorado Springs CO 28:46 28:43 9:07/M Frio
122 82 4 M 60-64 5516 David Betzler M 64 Monument CO 28:51 28:47 9:08/M  
123 83 11 M 40-44 5560 Dwight Bullard M 41 Colorado Springs CO 28:58 28:47 9:08/M  
124 84 12 M 30-34 4205 Adam Hulsey M 32 Colorado Springs CO 28:58 28:51 9:10/M Clydesdale  
125 41 5 F 45-49 4255 Lori Lewis F 46 Colorado Springs CO 28:57 28:53 9:10/M  
 
 
OPlc GPlc AGPlc Bib Name Sx Ag City Gun Chip Pace Senior Athena/Clyde Team
126 85 15 M 35-39 6035 Mark Canales M 38 Colorado Springs CO 29:06 28:57 9:11/M  
127 42 3 F 35-39 4486 Joanne Wallace F 36 Colorado Springs CO 29:07 28:57 9:11/M  
128 86 7 M 45-49 4039 Michael Boice M 49 Colorado Springs CO 29:03 28:58 9:12/M  
129 43 9 F 30-34 4210 Christine Irons F 33 Colorado Springs CO 29:13 29:05 9:14/M  
130 44 6 F 45-49 4222 Asli Kara F 48 Colorado Springs CO 29:12 29:06 9:14/M  
131 87 3 M 55-59 4003 Tony Abdella M 58 Elbert CO 29:14 29:07 9:15/M  
132 45 2 F 40-44 4202 Shannon Howrey F 40 Colorado Springs CO 29:20 29:11 9:16/M Frio
133 46 10 F 30-34 4495 Bobbi Kae Watt F 33 Colorado Springs CO 29:20 29:13 9:17/M  
134 88 12 M 40-44 4208 Jeff Icke M 44 Monument CO 29:22 29:15 9:17/M  
135 47 11 F 30-34 4272 Shauna Mayhew F 32 Colorado Springs CO 29:26 29:16 9:17/M  
136 48 6 F 25-29 4126 Paige Felker F 27 Colorado Springs CO 29:28 29:16 9:17/M  
137 49 8 F 10-14 5941 Ariana Arenson F 11 Colorado Springs CO 29:21 29:21 9:19/M Stud Muffins
138 50 2 F 50-54 4118 Eydie Elkins F 53 Colorado Springs CO 29:39 29:33 9:23/M Adam and the Eves
139 89 4 M 55-59 4062 Luke Cammack M 59 Manitou Springs CO 29:39 29:33 9:23/M  
140 90 13 M 40-44 4108 Dan Douglas M 42 Colorado Springs CO 29:52 29:35 9:23/M  
141 91 8 M 45-49 4102 Dave Dietz M 49 Colorado Springs CO 29:41 29:38 9:24/M Frio
142 92 16 M 35-39 4252 Will Lester M 36 Colorado Springs CO 29:46 29:42 9:26/M PEAK Multisport
143 51 7 F 45-49 5721 Petra Verhoeven-Jordan F 46 Colo Springs CO 29:50 29:43 9:26/M  
144 93 6 M 50-54 4290 Rick McKittrick M 52 Colorado Springs CO 29:49 29:49 9:28/M PEAK Multisport
145 52 4 F 35-39 6074 Melissa Schluessler F 38 29:55 29:49 9:28/M  
146 53 3 F 50-54 4267 Marti Marshall F 50 Pueblo West CO 30:04 29:52 9:29/M  
147 94 13 M 30-34 4020 John Baker M 30 Colorado Springs CO 30:14 29:55 9:30/M  
148 95 5 M 55-59 4305 John Montemayor M 55 Colorado Springs CO 30:01 29:55 9:30/M  
149 96 7 M 50-54 4063 Rich Canedo M 50 Colorado Springs CO 30:01 29:58 9:31/M  
150 97 9 M 45-49 4470 Charles Van Horn M 47 Colorado Springs CO 30:06 29:59 9:31/M Clydesdale  
 
 
OPlc GPlc AGPlc Bib Name Sx Ag City Gun Chip Pace Senior Athena/Clyde Team
151 98 14 M 30-34 4254 Josh Lewis M 31 Colorado Springs CO 30:10 29:59 9:31/M  
152 99 8 M 50-54 6055 Bob Robson M 51 Colorado Springs CO 30:09 30:01 9:32/M  
153 54 8 F 45-49 5748 Linda Schlierf F 49 Colorado Springs CO 30:09 30:04 9:33/M  
154 100 14 M 40-44 4143 Raymond Galik M 43 Colorado Springs CO 30:16 30:11 9:35/M Clydesdale  
155 101 10 M 45-49 4046 Daryl Brondum M 48 Monument CO 30:37 30:19 9:37/M 1st Flying Training Squadron
156 102 17 M 35-39 4169 Mike Haas M 39 Colorado Springs CO 30:25 30:20 9:38/M  
157 103 13 M 15-19 4060 Donnie Byers M 15 Colorado Springs CO 30:31 30:22 9:38/M Widefield Boys
158 55 9 F 45-49 5596 Jenifer Rolston F 49 Colorado Springs CO 30:29 30:22 9:38/M  
159 56 10 F 45-49 6070 Diane Kelsay F 49 Monument CO 30:31 30:24 9:39/M  
160 57 12 F 30-34 4334 Lani Olson F 32 Colorado Springs CO 30:37 30:25 9:39/M  
161 58 7 F 25-29 4156 Kelsey Gomberg F 25 Colorado Springs CO 30:41 30:27 9:40/M  
162 59 9 F 10-14 4445 Brittany Sutton F 14 Colorado Springs CO 30:33 30:28 9:40/M Vista Ridge Coed
163 60 3 F 40-44 5617 Becky Medina F 42 Pueblo CO 30:39 30:33 9:42/M  
164 61 5 F 35-39 4009 Shannon Ambrose F 39 Colorado Springs CO 30:40 30:33 9:42/M  
165 62 2 F 20-24 4398 Kristen Selke F 21 Colorado Springs CO 30:45 30:39 9:44/M  
166 104 14 M 15-19 6042 Phil Fisco Jr M 18 Colorado Springs CO 30:55 30:47 9:46/M Shoot Dang in the Boo Rang
167 63 6 F 35-39 5786 Hannah Joiner F 38 Colorado Springs CO 30:58 30:52 9:48/M  
168 105 15 M 40-44 4485 Fred Walker M 44 Colorado Springs CO 31:05 30:57 9:50/M CSPD Coed
169 106 9 M 50-54 4130 Thomas Finke M 54 Monument CO 31:14 30:59 9:50/M  
170 107 11 M 45-49 4198 Brad Holway M 49 Manitou Springs CO 31:13 31:00 9:50/M  
171 64 3 F 20-24 4010 Evelyn Anderson F 22 Colorado Springs CO 31:18 31:03 9:51/M Natural Gas Project
172 65 13 F 30-34 4167 Katie Guerra F 32 Golden CO 31:12 31:04 9:52/M  
173 108 12 M 45-49 5571 William Ewell M 46 Colorado Springs CO 31:14 31:09 9:53/M EPSO Coed
174 109 18 M 35-39 5904 Jerry Patterson M 39 Peyton CO 31:28 31:22 9:57/M  
175 110 19 M 35-39 5929 Josh Stanley M 35 Colorado Springs CO 31:35 31:25 9:58/M Clydesdale  
 
 
OPlc GPlc AGPlc Bib Name Sx Ag City Gun Chip Pace Senior Athena/Clyde Team
176 66 14 F 30-34 4152 Angie Glass F 34 Manitou Springs CO 31:38 31:27 9:59/M  
177 111 15 M 30-34 4259 Bryan Lipe M 33 Colorado Springs CO 31:49 31:40 10:03/M  
178 112 1 M 70-74 4366 Jack Ramsey M 70 Colorado Springs CO 31:47 31:43 10:04/M Senior  
179 67 15 F 30-34 4112 Nora Duane F 33 Manitou Springs CO 31:53 31:45 10:05/M Scrambled Legs
180 68 2 F 55-59 4040 Hae Bolduc F 57 Park City UT 32:08 31:57 10:09/M  
181 113 16 M 30-34 4373 Jeremy Rickard M 32 Colorado Springs CO 32:13 32:02 10:10/M  
182 69 16 F 30-34 4318 Jessica Narkevitz F 30 Colorado Springs CO 32:15 32:07 10:12/M CFF
183 114 16 M 40-44 5750 Chris Gonzalez M 43 Colo Springs CO 32:24 32:11 10:13/M EPSO Coed
184 70 7 F 35-39 5739 Kat Kiser F 39 Colo Springs CO 32:14 32:12 10:13/M  
185 71 4 F 40-44 4074 Julie Chagnon F 43 Colorado Springs CO 32:19 32:14 10:14/M CSPD Coed
186 72 11 F 45-49 6073 Stacy Nepp-Palos F 47 Colo Springs CO 32:26 32:20 10:16/M  
187 115 6 M 25-29 6062 Caleb McDaniels M 28 Peyton CO 32:44 32:25 10:17/M Runderdogs
188 116 15 M 15-19 4076 Morgan Chapman M 17 Colorado Springs CO 32:44 32:27 10:18/M  
189 73 1 F 60-64 4270 Marijane Martinez F 60 Pueblo CO 32:42 32:34 10:20/M  
190 117 17 M 30-34 4092 Ken Cupples M 34 Colorado Springs CO 32:34 32:34 10:20/M Clydesdale AAA Volunteers
191 118 13 M 45-49 4200 Gary Horton M 45 Fountain CO 32:53 32:44 10:23/M Clydesdale EPSO Coed
192 119 5 M 60-64 4282 Tim McElderry M 61 Colorado Springs CO 32:58 32:49 10:25/M  
193 74 12 F 45-49 5835 Kimberly Helgerson F 46 Colo Springs CO 33:02 32:50 10:25/M  
194 120 6 M 60-64 4216 Alan Johnson M 64 Peyton CO 32:55 32:52 10:26/M  
195 121 7 M 25-29 4316 Steve Myers M 25 Colorado Springs CO 33:00 32:54 10:27/M  
196 75 4 F 50-54 4018 Kate Baines-Lyman F 50 Colorado Springs CO 33:15 33:03 10:30/M  
197 122 7 M 60-64 4029 Larry Benko M 62 Broomfield CO 33:12 33:04 10:30/M  
198 76 17 F 30-34 4465 Julie Turner F 32 Colorado Springs CO 33:21 33:09 10:31/M  
199 77 8 F 35-39 5920 Jill Stanley F 35 Colorado Springs CO 33:26 33:15 10:33/M  
200 78 5 F 40-44 4075 Michelle Chapman F 44 Colorado Springs CO 33:32 33:16 10:34/M  
 
 
OPlc GPlc AGPlc Bib Name Sx Ag City Gun Chip Pace Senior Athena/Clyde Team
201 79 13 F 45-49 4067 Tracey Carroll F 48 Colorado Springs CO 33:36 33:20 10:35/M Frio
202 123 18 M 30-34 4365 Valentino Ramos M 31 Colorado Springs CO 33:42 33:34 10:39/M  
203 80 4 F 20-24 4489 Sarah Ward F 23 Colorado Springs CO 33:49 33:37 10:40/M  
204 81 8 F 25-29 5867 Karen Deloria F 25 Monument CO 33:56 33:43 10:42/M  
205 82 14 F 45-49 4462 Cathy Tirpak F 45 Monument CO 33:51 33:46 10:43/M  
206 83 5 F 50-54 5765 Karen Roscoe F 53 Elbert CO 34:06 33:47 10:43/M  
207 84 15 F 45-49 5636 Janet Edwards F 48 Colorado Springs CO 33:59 33:50 10:44/M  
208 124 17 M 40-44 6037 Tyree Clark M 43 Colorado Springs CO 34:05 33:55 10:46/M Clydesdale  
209 125 1 M 1- 9 4407 Joel Shorey M 9 Colorado Springs CO 34:20 34:07 10:50/M  
210 85 5 F 20-24 4088 Rebekah Courtade F 24 Colorado Springs CO 34:23 34:14 10:52/M CFF
211 86 3 F 55-59 5654 Micky Simpson F 56 Colorado Springs CO 34:24 34:15 10:52/M  
212 126 14 M 45-49 5797 Cary Katalin M 45 Colo Springs CO 34:25 34:16 10:53/M  
213 127 18 M 40-44 4384 Doug Roth M 42 Colorado Springs CO 34:18 34:18 10:53/M  
214 87 18 F 30-34 8146 Lee Ann Benkert F 34 Colorado Springs CO 34:44 34:30 10:57/M  
215 88 11 F 15-19 4479 Olympia Vida F 15 Colorado Springs CO 34:37 34:30 10:57/M  
216 89 9 F 25-29 4095 Keeley Davis F 25 Colorado Springs CO 34:50 34:33 10:58/M  
217 128 10 M 50-54 4052 Sean Bryan M 53 Colorado Springs CO 34:46 34:35 10:59/M  
218 129 5 M 10-14 6019 Tyler Witt M 12 Colorado Springs CO 34:49 34:37 10:59/M Cafe Velo
219 130 11 M 50-54 4382 Mark Roscoe M 52 Elbert CO 35:03 34:43 11:01/M  
220 131 19 M 30-34 4211 Jeremy Jacobs M 30 Colorado Springs CO 35:01 34:44 11:02/M  
221 90 6 F 40-44 4490 Leann Waring F 42 Colorado Springs CO 34:52 34:44 11:02/M  
222 91 19 F 30-34 4361 Kirsten Pyhtila F 30 Colorado Springs CO 34:51 34:44 11:02/M Falcon
223 92 4 F 55-59 4274 Vicki McCann F 55 Colorado Springs CO 34:46 34:46 11:02/M  
224 132 6 M 10-14 4235 Ben Kisley M 13 Colorado Springs CO 35:01 34:49 11:03/M DCC
225 133 19 M 40-44 6033 Tj Bopp M 41 Colorado Springs CO 35:08 34:52 11:04/M  
 
 
OPlc GPlc AGPlc Bib Name Sx Ag City Gun Chip Pace Senior Athena/Clyde Team
226 93 7 F 40-44 4031 Rebecca Berg F 41 Colorado Springs CO 35:10 35:03 11:08/M  
227 94 20 F 30-34 4312 Mary Murphy F 31 Colorado Springs CO 35:06 35:06 11:09/M  
228 95 8 F 40-44 4122 Chrystal Erickson F 41 Colorado Springs CO 35:21 35:07 11:09/M  
229 96 6 F 20-24 4155 Steveina Glenn F 21 Colorado Springs CO 35:37 35:15 11:11/M  
230 97 21 F 30-34 4327 Anna Norsky F 31 Cohocton NY 35:21 35:18 11:12/M HART
231 98 9 F 40-44 4196 Ronda Holton F 44 Colorado Springs CO 35:29 35:23 11:14/M  
232 99 10 F 10-14 5709 Mackenzie Moss F 11 Colo Springs CO 35:38 35:28 11:16/M  
233 100 10 F 25-29 4215 Andrea Jewell F 28 Aurora CO 35:34 35:28 11:16/M  
234 101 6 F 50-54 4184 Lisa Heckel F 50 Manitou Springs CO 35:44 35:28 11:16/M Frio
235 102 7 F 20-24 4109 Emily Doyle F 23 Denver CO 35:35 35:28 11:16/M  
236 103 9 F 35-39 4418 Shana Smith F 37 Colorado Springs CO 35:47 35:35 11:18/M Athena  
237 134 12 M 50-54 6061 Chris Alvarez M 51 Colorado Springs CO 35:59 35:44 11:21/M  
238 135 2 M 1- 9 6060 Francisco Alvarez M 9 Colorado Springs CO 36:00 35:45 11:21/M  
239 104 10 F 40-44 4331 Amy Oberholser F 40 Colorado Springs CO 36:04 35:48 11:22/M CSPD Coed
240 136 20 M 40-44 4336 John O'Rourke M 44 Colorado Springs CO 35:48 35:48 11:22/M  
241 105 5 F 55-59 4111 Martha Drake F 59 Pueblo West CO 36:05 35:50 11:23/M  
242 106 8 F 20-24 4203 Tiffany Hsieh F 24 Colorado Springs CO 36:17 36:01 11:26/M Natural Gas Project
243 107 9 F 20-24 6043 Kayla Hafer F 22 Colorado Springs CO 36:13 36:02 11:26/M  
244 137 13 M 50-54 4248 Bill Leake M 54 Colorado Springs CO 36:08 36:08 11:28/M HART
245 108 11 F 25-29 4136 Rebecca Fleming F 26 Colorado Springs CO 36:22 36:09 11:29/M  
246 109 16 F 45-49 4058 Maribeth Butler-Sisnroy F 48 Pueblo CO 36:24 36:10 11:29/M  
247 110 11 F 40-44 4221 Meike Jurado F 44 Colorado Springs CO 36:29 36:11 11:29/M  
248 111 12 F 40-44 4412 Dorie Sifford F 40 Colorado Springs CO 36:32 36:13 11:30/M  
249 138 7 M 10-14 4436 Nathan Stewart M 11 Colorado Springs CO 36:33 36:15 11:30/M  
250 112 12 F 25-29 6026 Melinda Yocom F 27 Colorado Springs CO 36:42 36:30 11:35/M  
 
 
OPlc GPlc AGPlc Bib Name Sx Ag City Gun Chip Pace Senior Athena/Clyde Team
251 139 21 M 40-44 4406 John Shirtz M 43 Colorado Springs CO 36:54 36:36 11:37/M Clydesdale  
252 113 17 F 45-49 4189 Jill Hessek F 48 Colorado Springs CO 36:46 36:38 11:38/M  
253 140 14 M 50-54 4474 Edward Vest M 50 Colorado Springs CO 36:59 36:45 11:40/M  
254 141 15 M 50-54 4041 Chris Bombria M 51 Peyton CO 37:19 36:58 11:44/M Clydesdale  
255 114 13 F 40-44 6010 Hope Williams F 43 Colorado Springs CO 37:04 36:59 11:44/M  
256 142 22 M 40-44 4110 Paul Doyle M 43 Colorado Springs CO 37:15 37:03 11:46/M  
257 143 1 M 65-69 4388 Tim Ryan M 67 Colorado Springs CO 37:04 37:04 11:46/M Senior  
258 115 22 F 30-34 5930 Athena McDaniels F 32 Peyton CO 37:27 37:08 11:47/M Runderdogs
259 116 7 F 50-54 4008 Leslie Allen F 50 Colorado Springs CO 37:25 37:11 11:48/M  
260 144 8 M 60-64 4044 William Bragg M 60 Colorado Springs CO 37:31 37:14 11:49/M  
261 117 14 F 40-44 4241 Cynthia Kuntze F 40 Colorado Springs CO 37:26 37:15 11:50/M Kickin' Trail Runners
262 118 8 F 50-54 4042 Patty Borish F 54 Peyton CO 37:23 37:17 11:50/M Runderdogs
263 145 2 M 65-69 4451 Keith Taylor M 69 Colorado Springs CO 37:42 37:29 11:54/M Senior  
264 146 8 M 10-14 4409 Mark Shorey M 13 Colorado Springs CO 37:43 37:29 11:54/M  
265 119 13 F 25-29 4345 Michelle Parvinrouh F 29 Glendale CO 37:37 37:30 11:54/M  
266 120 23 F 30-34 4368 Erin Rapach F 33 Colorado Springs CO 37:41 37:30 11:54/M  
267 147 20 M 35-39 4103 Jason Doedderlein M 39 Colorado Springs CO 37:39 37:31 11:55/M  
268 121 14 F 25-29 4363 Erin Quinn F 29 Colorado Springs CO 37:44 37:33 11:55/M  
269 122 15 F 40-44 4141 Tina Frieda F 41 Fountain CO 37:40 37:40 11:57/M Athena  
270 123 18 F 45-49 4212 Terry Jahelka F 48 Colorado Springs CO 37:54 37:41 11:58/M Frio
271 124 10 F 35-39 5919 Stephanie Surch F 35 Colorado Springs CO 38:00 37:52 12:01/M CFF
272 148 16 M 50-54 5512 Ralph Lechner M 52 Colorado Springs CO 38:08 37:54 12:02/M  
273 125 16 F 40-44 4385 Kristina Roth F 42 Colorado Springs CO 38:11 37:57 12:03/M  
274 126 11 F 35-39 5779 Rachel Deherrera F 36 Colorado Springs CO 38:17 37:59 12:03/M  
275 127 17 F 40-44 4389 Sherry Saunders F 40 Colorado Springs CO 38:17 37:59 12:03/M  
 
 
OPlc GPlc AGPlc Bib Name Sx Ag City Gun Chip Pace Senior Athena/Clyde Team
276 128 1 F 65-69 4021 Marie Ballard F 66 Manitou Springs CO 38:16 38:03 12:05/M Senior  
277 129 6 F 55-59 5644 Diane Hammer F 55 Parker CO 38:14 38:08 12:06/M  
278 149 21 M 35-39 6023 Brock Wortman M 35 Colorado Springs CO 38:27 38:15 12:09/M  
279 150 22 M 35-39 5675 Dennis Stalnaker M 39 Colorado Springs CO 38:31 38:21 12:10/M  
280 130 19 F 45-49 5629 Erin Tatum F 45 Colo Springs CO 38:36 38:27 12:12/M  
281 131 18 F 40-44 5660 Heather Evans F 41 Colo Springs CO 38:48 38:35 12:15/M  
282 151 3 M 1- 9 5699 Bo Moss M 7 Colorado Springs CO 38:35 38:35 12:15/M  
283 152 20 M 30-34 6075 Jamal Breland M 32 Fountain CO 38:55 38:36 12:15/M  
284 132 24 F 30-34 5863 Honey Mae Weaver F 30 Colorado Springs CO 38:55 38:38 12:16/M  
285 133 12 F 35-39 4374 Rebecca Riopelle F 39 Peyton CO 38:59 38:43 12:17/M Frio
286 134 25 F 30-34 4170 Sarah Hagedorn F 30 Colorado Springs CO 39:01 38:45 12:18/M Athena  
287 135 9 F 50-54 4129 Susan Finke F 51 Monument CO 39:05 38:50 12:20/M  
288 153 9 M 60-64 4163 George Gregor M 60 Colorado Springs CO 39:01 38:51 12:20/M Clydesdale  
289 154 8 M 25-29 4048 Eric Brown M 27 Colorado Springs CO 39:07 39:02 12:23/M AAA Volunteers
290 136 15 F 25-29 4049 Laura Brown F 29 Colorado Springs CO 39:09 39:05 12:24/M AAA Volunteers
291 137 19 F 40-44 4236 Cindy Klahn F 41 Colorado Springs CO 39:20 39:07 12:25/M  
292 138 13 F 35-39 4369 Beth Reed F 38 Colorado Springs CO 39:28 39:12 12:27/M  
293 139 20 F 45-49 4127 Roni Ferrenberg F 45 Peyton CO 39:30 39:14 12:27/M  
294 140 26 F 30-34 4240 Lisa Kukula F 32 Black Forest CO 39:35 39:19 12:29/M Athena  
295 141 27 F 30-34 4183 Tameaka Haynes F 30 Colorado Springs CO 39:35 39:27 12:31/M  
296 155 23 M 40-44 5703 Lee Moss M 42 Colorado Spgs CO 39:39 39:29 12:32/M  
297 142 11 F 10-14 5679 Brooke Moss F 10 Colorado Spgs CO 39:41 39:31 12:33/M  
298 143 12 F 10-14 6018 Sophia Witt F 10 Colorado Springs CO 39:51 39:40 12:36/M Cafe Velo
299 156 9 M 10-14 4064 Richie Canedo M 13 Colorado Springs CO 39:48 39:45 12:37/M  
300 157 17 M 50-54 4346 Randolph Pasko M 50 Colorado Springs CO 40:07 39:59 12:42/M Clydesdale  
 
 
OPlc GPlc AGPlc Bib Name Sx Ag City Gun Chip Pace Senior Athena/Clyde Team
301 158 3 M 65-69 6036 Eugene Chavez M 68 Colorado Springs CO 40:11 39:59 12:42/M Senior  
302 144 14 F 35-39 4453 Kelly Tedesco F 36 Colorado Springs CO 40:17 40:02 12:43/M EPSO Coed
303 145 28 F 30-34 4089 Stephanie Courtney F 34 Colorado Springs CO 40:17 40:03 12:43/M  
304 146 2 F 60-64 4422 Alexis Snyder-Smith F 60 Colorado Springs CO 40:23 40:11 12:45/M  
305 159 24 M 40-44 6029 Morgan Young M 40 Colorado Springs CO 40:30 40:18 12:48/M  
306 147 29 F 30-34 4057 Brandi Buskohl F 34 Colorado Springs CO 40:58 40:41 12:55/M Athena  
307 148 16 F 25-29 4105 Amy Dorsett F 28 Colorado Springs CO 41:32 41:19 13:07/M  
308 160 1 M 75-79 4427 Marvin Sonksen M 75 Calhan CO 41:46 41:29 13:10/M Senior  
309 149 15 F 35-39 4392 Melissa Schott F 37 Colorado Springs CO 41:46 41:29 13:10/M Athena  
310 161 4 M 65-69 6078 Pat Milligan M 68 Colorado Springs CO 41:44 41:38 13:13/M Senior  
311 150 21 F 45-49 6054 Cathy O'Driscoll F 47 Colorado Springs CO 41:53 41:53 13:18/M  
312 151 10 F 20-24 4311 Courtney Moynahan F 24 Colorado Springs CO 42:21 42:03 13:21/M EPSO Coed
313 162 18 M 50-54 4360 Michael Puig M 54 Peyton CO 42:04 42:04 13:21/M  
314 152 17 F 25-29 4032 Lisa Besler F 28 Woodland Park CO 42:18 42:08 13:23/M  
315 153 30 F 30-34 4429 Amy Stach F 34 Colorado Springs CO 42:25 42:13 13:24/M  
316 154 16 F 35-39 4125 Gladys Felix-Mendoza F 36 Colorado Springs CO 42:59 42:37 13:32/M  
317 163 23 M 35-39 4295 Julius Mendoza M 36 Colorado Springs CO 43:01 42:41 13:33/M  
318 155 31 F 30-34 4488 Sandi Ward F 31 Colorado Springs CO 43:03 42:47 13:35/M  
319 156 17 F 35-39 5865 Kristi Harris F 37 Colorado Springs CO 43:31 43:12 13:43/M  
320 157 32 F 30-34 4402 Alicia Shepherd F 32 Colorado Springs CO 43:59 43:59 13:58/M  
321 158 33 F 30-34 4370 Adrienne Reid F 34 Colorado Springs CO 44:36 44:18 14:04/M Athena  
322 164 25 M 40-44 4262 Marc MacGregor M 44 Castle Rock CO 44:56 44:46 14:13/M  
323 159 18 F 25-29 4213 Elizabeth Jaszkowiak F 29 Colorado Springs CO 45:18 45:05 14:19/M Athena  
324 160 19 F 25-29 4458 Celeste Thompson F 25 Colorado Springs CO 45:22 45:18 14:23/M AAA Volunteers
325 161 18 F 35-39 5804 Jenna Bailey F 35 Colorado Springs CO 45:32 45:23 14:24/M  
 
 
OPlc GPlc AGPlc Bib Name Sx Ag City Gun Chip Pace Senior Athena/Clyde Team
326 162 10 F 50-54 4231 Tammi Kinner F 53 Elbert CO 45:53 45:38 14:29/M Athena EPSO Coed
327 163 7 F 55-59 5829 Arlere Burgos F 59 Colo Springs CO 46:02 45:45 14:31/M  
328 164 20 F 25-29 6039 Charlee Faulk F 25 Colorado Springs CO 46:10 46:00 14:36/M  
329 165 34 F 30-34 6028 Ashley Young F 33 Colorado Springs CO 46:14 46:01 14:37/M  
330 166 11 F 50-54 4478 Becki Vettese F 54 Canon City CO 46:43 46:28 14:45/M  
331 165 24 M 35-39 4319 Josh Neal M 36 Colorado Springs CO 47:34 47:19 15:01/M  
332 167 21 F 25-29 5817 Ashley Pomales F 27 Colorado Springs CO 48:00 47:50 15:11/M  
333 168 19 F 35-39 4408 Laura Shorey F 38 Colorado Springs CO 49:07 48:47 15:29/M  
334 169 20 F 35-39 4195 Libby Holshue F 35 Colorado Springs CO 49:10 48:50 15:30/M  
335 170 12 F 50-54 4056 Sharon Burton F 51 Divide CO 51:54 51:35 16:23/M  
336 171 13 F 50-54 4134 Judy Fithian F 54 Falcon CO 52:22 51:59 16:30/M  
337 172 35 F 30-34 4338 Erica Otero F 32 Colorado Springs CO 52:40 52:23 16:38/M  
338 166 1 M 80-84 4297 Edwin Mighell M 82 Denver CO 52:25 52:25 16:38/M Senior  
339 173 22 F 25-29 6065 Caitie Wickman F 26 Colorado Springs CO 52:59 52:42 16:44/M  
340 174 20 F 40-44 4376 Teaka Robba F 40 Colorado Springs CO 53:14 52:56 16:48/M  
341 175 1 F 75-79 4139 Julie Foster F 76 Colorado Springs CO 55:44 55:44 17:42/M Senior  
342 176 1 F 70-74 4426 Dorothy Sonksen F 71 Calhan CO 56:26 56:08 17:49/M Senior  
343 167 6 M 55-59 6008 Kim Will M 57 Colorado Springs CO 59:32 59:32 18:54/M Team CMHS
344 168 25 M 35-39 5772 Dj Cobb M 39 Colorado Springs CO 59:54 59:36 18:55/M  
345 177 21 F 35-39 4094 Sara Daum F 35 Lincoln AL 1:00:21 1:00:21 19:10/M  
DQ DQ DQ F 40-44 4263 Kat Maestas F 43 Canon City CO 19:31 19:31 6:12/M